Time;durP1;ratioP1;P1;durP2;ratioP2;P2;SDS_P1;SDS_P2;PMS_P1;PMS_P2;Temp;Humidity;BMP_temperature;BMP_pressure;BME280_temperature;BME280_humidity;BME280_pressure;Samples;Min_cycle;Max_cycle;Signal;HPM_P1;HPM_P2
2023/12/24 00:01:15;;;;;;;2.00;1.73;;;10.00;1.00;;;8.99;100.00;100359.59;4978024;28;20050;-76
2023/12/24 00:03:43;;;;;;;2.30;1.60;;;10.10;1.00;;;8.95;100.00;100353.53;4967676;28;20054;-77
2023/12/24 00:06:10;;;;;;;5.28;1.95;;;10.10;1.00;;;8.89;100.00;100341.38;4975380;28;20042;-77
2023/12/24 00:08:38;;;;;;;1.95;1.42;;;10.10;1.00;;;8.87;100.00;100327.41;4956781;28;20046;-76
2023/12/24 00:11:05;;;;;;;2.00;1.40;;;10.10;1.00;;;8.88;100.00;100329.16;4992034;28;20049;-76
2023/12/24 00:13:33;;;;;;;2.60;1.65;;;10.10;1.00;;;8.90;100.00;100319.50;4955603;28;20057;-77
2023/12/24 00:16:01;;;;;;;1.45;1.30;;;10.10;1.00;;;8.93;100.00;100324.69;4980006;28;20043;-76
2023/12/24 00:18:31;;;;;;;3.35;1.63;;;10.10;1.00;;;8.84;100.00;100303.00;4974280;28;20073;-76
2023/12/24 00:20:58;;;;;;;;;;;10.10;1.00;;;8.99;100.00;100331.59;4966827;28;20092;-76
2023/12/24 00:23:25;;;;;;;1.85;1.65;;;11.20;1.00;;;8.88;100.00;100302.91;4987804;28;19976;-76
2023/12/24 00:25:52;;;;;;;2.92;1.70;;;10.10;1.00;;;8.96;100.00;100300.13;4988552;28;20053;-76
2023/12/24 00:28:19;;;;;;;2.35;1.80;;;10.10;1.00;;;8.83;100.00;100302.13;4980728;28;20038;-76
2023/12/24 00:30:46;;;;;;;2.70;1.45;;;10.10;1.00;;;8.98;100.00;100361.38;4988162;28;20097;-76
2023/12/24 00:33:13;;;;;;;1.92;1.58;;;10.10;1.00;;;8.85;100.00;100286.38;4998884;28;20043;-76
2023/12/24 00:35:41;;;;;;;2.08;1.27;;;10.30;1.00;;;8.92;100.00;100312.47;4995092;28;20046;-76
2023/12/24 00:38:08;;;;;;;4.38;2.63;;;10.10;1.00;;;8.83;100.00;100317.88;4970403;28;20050;-76
2023/12/24 00:40:35;;;;;;;3.60;2.03;;;10.00;1.00;;;8.75;100.00;100304.88;4969609;28;20046;-76
2023/12/24 00:43:02;;;;;;;2.30;1.63;;;10.00;1.00;;;8.87;100.00;100326.56;4974111;28;20050;-76
2023/12/24 00:45:30;;;;;;;2.42;1.40;;;10.00;1.00;;;8.74;100.00;100283.91;4974185;28;20137;-76
2023/12/24 00:47:58;;;;;;;2.08;1.58;;;10.10;1.00;;;8.80;100.00;100310.06;4991626;28;20092;-76
2023/12/24 00:50:25;;;;;;;2.63;1.50;;;9.80;1.00;;;8.94;100.00;100320.28;4979793;28;20615;-76
2023/12/24 00:52:53;;;;;;;1.80;1.33;;;10.00;1.00;;;8.86;100.00;100311.72;4995278;28;20073;-76
2023/12/24 00:55:21;;;;;;;2.17;1.60;;;9.30;1.00;;;8.92;100.00;100301.97;4962440;28;20127;-76
2023/12/24 00:57:49;;;;;;;2.95;1.60;;;10.00;1.00;;;8.89;100.00;100303.78;4997308;28;20054;-76
2023/12/24 01:00:16;;;;;;;1.95;1.55;;;10.00;1.00;;;8.91;100.00;100307.25;5002432;28;20053;-75
2023/12/24 01:02:45;;;;;;;2.03;1.35;;;10.00;1.00;;;8.82;100.00;100283.78;4970795;28;20060;-75
2023/12/24 01:05:12;;;;;;;3.63;1.80;;;10.00;1.00;;;8.80;100.00;100286.44;4984248;28;20879;-76
2023/12/24 01:07:40;;;;;;;4.47;1.75;;;10.00;1.00;;;8.93;100.00;100327.31;4975159;28;20132;-76
2023/12/24 01:10:07;;;;;;;3.75;1.52;;;10.00;1.00;;;8.99;100.00;100275.59;4991494;28;20089;-75
2023/12/24 01:12:37;;;;;;;2.72;1.90;;;10.10;1.00;;;8.91;100.00;100297.63;5006517;28;20160;-76
2023/12/24 01:15:07;;;;;;;4.22;1.70;;;11.00;1.00;;;8.88;100.00;100270.56;4977125;28;20038;-76
2023/12/24 01:17:35;;;;;;;3.22;1.88;;;10.00;1.00;;;8.73;100.00;100232.34;4989907;28;20084;-78
2023/12/24 01:20:15;;;;;;;3.67;2.30;;;9.90;1.00;;;8.89;100.00;100253.94;4980694;28;20081;-77
2023/12/24 01:22:42;;;;;;;;;;;10.10;1.00;;;8.91;100.00;100271.38;5014235;28;20730;-77
2023/12/24 01:25:09;;;;;;;2.40;1.65;;;10.10;1.00;;;8.88;100.00;100265.31;4979935;28;19921;-77
2023/12/24 01:27:38;;;;;;;1.60;1.40;;;10.10;1.00;;;8.93;100.00;100273.97;4965545;28;20050;-77
2023/12/24 01:30:05;;;;;;;2.83;1.60;;;10.00;1.00;;;8.92;100.00;100269.59;4981061;28;20046;-76
2023/12/24 01:32:33;;;;;;;4.15;1.80;;;10.10;1.00;;;8.94;100.00;100258.19;4992222;28;20390;-78
2023/12/24 01:35:00;;;;;;;2.97;2.33;;;10.10;1.00;;;8.84;100.00;100261.03;4994946;28;20088;-75
2023/12/24 01:37:27;;;;;;;2.20;1.85;;;10.10;1.00;;;9.02;100.00;100312.28;4982623;28;20042;-77
2023/12/24 01:39:54;;;;;;;3.53;1.70;;;10.10;1.00;;;8.84;100.00;100240.91;4998004;28;20053;-77
2023/12/24 01:42:24;;;;;;;3.08;1.85;;;10.10;1.00;;;9.04;100.00;100279.88;4981668;28;20072;-76
2023/12/24 01:44:55;;;;;;;2.40;1.63;;;10.10;1.00;;;8.90;100.00;100243.41;4987318;28;20722;-77
2023/12/24 01:47:23;;;;;;;2.47;1.70;;;10.10;1.00;;;9.02;100.00;100270.28;4966324;28;20535;-77
2023/12/24 01:49:50;;;;;;;1.95;1.75;;;10.10;1.00;;;8.97;100.00;100264.28;4979683;28;20057;-76
2023/12/24 01:52:18;;;;;;;1.42;1.33;;;10.20;1.00;;;8.93;100.00;100274.84;4983112;28;20037;-76
2023/12/24 01:54:47;;;;;;;1.65;1.55;;;10.10;1.00;;;9.04;100.00;100279.88;4980421;28;20053;-76
2023/12/24 01:57:15;;;;;;;3.17;1.70;;;10.10;1.00;;;8.92;100.00;100265.25;4976529;28;20169;-76
2023/12/24 01:59:43;;;;;;;1.77;1.35;;;10.20;1.00;;;8.91;100.00;100284.50;4999375;28;20069;-77
2023/12/24 02:02:11;;;;;;;1.83;1.67;;;10.20;99.90;;;8.96;100.00;100259.94;4974713;28;20050;-76
2023/12/24 02:04:39;;;;;;;1.83;1.58;;;10.20;99.90;;;9.14;100.00;100303.34;4966993;28;20049;-77
2023/12/24 02:07:07;;;;;;;2.25;1.50;;;10.20;99.90;;;9.02;100.00;100284.31;4966224;28;20036;-76
2023/12/24 02:09:34;;;;;;;4.10;1.90;;;10.20;99.90;;;9.02;100.00;100294.78;4969522;28;20077;-76
2023/12/24 02:12:01;;;;;;;2.75;1.65;;;10.20;99.90;;;8.97;100.00;100286.13;4958163;28;20037;-77
2023/12/24 02:14:29;;;;;;;2.50;1.77;;;10.20;99.90;;;9.08;100.00;100348.94;4962388;28;20057;-76
2023/12/24 02:16:59;;;;;;;3.17;1.58;;;10.20;99.90;;;9.19;100.00;100317.22;4963090;28;20050;-76
2023/12/24 02:19:28;;;;;;;2.05;1.52;;;10.20;99.90;;;8.84;100.00;100269.75;4992216;28;20060;-76
2023/12/24 02:21:56;;;;;;;2.55;1.60;;;10.20;99.90;;;8.98;100.00;100314.13;4974735;28;20465;-77
2023/12/24 02:24:23;;;;;;;1.85;1.50;;;10.20;99.90;;;9.07;100.00;100313.94;4971052;28;20055;-76
2023/12/24 02:27:21;;;;;;;1.83;1.48;;;10.20;99.90;;;9.11;100.00;100329.63;4986405;28;20053;-76
2023/12/24 02:29:53;;;;;;;2.85;1.45;;;10.20;99.90;;;9.24;100.00;100327.66;4960552;28;20050;-77
2023/12/24 02:32:22;;;;;;;2.08;1.45;;;10.30;99.90;;;9.18;100.00;100331.25;4973749;28;20084;-77
2023/12/24 02:34:50;;;;;;;2.03;1.42;;;10.20;99.90;;;9.15;100.00;100326.06;4984853;28;20050;-76
2023/12/24 02:37:18;;;;;;;1.63;1.50;;;10.30;99.90;;;8.68;100.00;100260.44;4982487;28;20508;-76
2023/12/24 02:39:47;;;;;;;3.17;1.63;;;10.20;99.90;;;9.10;100.00;100338.38;4967482;28;20042;-77
2023/12/24 02:42:15;;;;;;;5.63;1.80;;;10.20;99.90;;;9.14;100.00;100325.19;4964349;28;20054;-76
2023/12/24 02:44:42;;;;;;;1.70;1.45;;;10.20;99.90;;;8.97;100.00;100294.00;4972350;28;20058;-77
2023/12/24 02:47:09;;;;;;;3.00;1.48;;;10.10;99.90;;;9.00;100.00;100314.97;4990763;28;20078;-77
2023/12/24 02:49:38;;;;;;;1.58;1.48;;;10.20;1.00;;;9.11;100.00;100348.88;4961260;28;20042;-77
2023/12/24 02:52:05;;;;;;;2.05;1.30;;;10.20;1.00;;;9.06;100.00;100332.34;5006965;28;20049;-77
2023/12/24 02:54:32;;;;;;;2.53;1.52;;;10.20;1.00;;;9.11;100.00;100337.50;4963003;28;20387;-76
2023/12/24 02:56:59;;;;;;;2.22;1.40;;;10.10;1.00;;;8.98;100.00;100316.75;4986291;28;20056;-77
2023/12/24 02:59:28;;;;;;;1.35;1.25;;;10.20;1.00;;;8.90;100.00;100302.88;4962785;28;20222;-76
2023/12/24 03:01:55;;;;;;;3.47;1.33;;;10.20;1.00;;;8.99;100.00;100318.47;4963506;28;20100;-77
2023/12/24 03:04:22;;;;;;;1.45;1.35;;;10.10;1.00;;;8.96;100.00;100328.16;4982622;28;20124;-77
2023/12/24 03:06:50;;;;;;;3.63;1.67;;;10.10;1.00;;;8.93;100.00;100298.47;4983191;28;20039;-76
2023/12/24 03:09:17;;;;;;;3.17;1.85;;;10.10;1.00;;;9.03;100.00;100330.66;4957835;28;20678;-77
2023/12/24 03:11:46;;;;;;;1.58;1.30;;;10.10;1.00;;;8.90;100.00;100308.13;4976812;28;20089;-77
2023/12/24 03:14:13;;;;;;;1.45;1.33;;;10.10;1.00;;;8.92;100.00;100324.72;4957633;28;20121;-76
2023/12/24 03:16:40;;;;;;;1.70;1.50;;;10.00;1.00;;;8.99;100.00;100334.22;5006552;28;20058;-77
2023/12/24 03:19:08;;;;;;;2.05;1.48;;;10.00;1.00;;;8.87;100.00;100295.09;4981787;28;20440;-76
2023/12/24 03:21:35;;;;;;;1.48;1.30;;;10.00;1.00;;;8.84;100.00;100282.88;4966028;28;20130;-77
2023/12/24 03:24:02;;;;;;;4.10;1.80;;;10.00;1.00;;;8.94;100.00;100312.44;4972073;28;20049;-77
2023/12/24 03:26:29;;;;;;;1.73;1.52;;;10.00;1.00;;;8.95;100.00;100293.16;5004403;28;20049;-77
2023/12/24 03:28:56;;;;;;;1.88;1.50;;;10.00;1.00;;;8.83;100.00;100257.53;4991250;28;20097;-77
2023/12/24 03:31:26;;;;;;;2.00;1.50;;;10.00;1.00;;;8.90;100.00;100276.66;4987769;28;20054;-77
2023/12/24 03:33:53;;;;;;;2.20;1.60;;;10.00;1.00;;;8.95;100.00;100280.03;4979009;28;20046;-77
2023/12/24 03:36:20;;;;;;;2.22;1.73;;;10.00;1.00;;;8.90;100.00;100289.78;4974980;28;20061;-77
2023/12/24 03:38:47;;;;;;;1.45;1.35;;;10.00;1.00;;;8.97;100.00;100287.91;4974965;28;20170;-77
2023/12/24 03:41:15;;;;;;;1.75;1.40;;;10.10;1.00;;;8.83;100.00;100264.56;4973839;28;20050;-77
2023/12/24 03:43:43;;;;;;;1.75;1.40;;;10.00;1.00;;;8.86;100.00;100283.69;4967699;28;20057;-77
2023/12/24 03:46:10;;;;;;;1.90;1.73;;;10.60;1.00;;;9.02;100.00;100291.28;4954982;28;20141;-76
2023/12/24 03:48:37;;;;;;;1.85;1.50;;;10.10;1.00;;;8.86;100.00;100270.59;4955977;28;20046;-76
2023/12/24 03:51:05;;;;;;;1.50;1.40;;;10.10;1.00;;;8.88;100.00;100292.41;4995026;28;20121;-77
2023/12/24 03:53:32;;;;;;;2.38;1.63;;;10.10;1.00;;;8.91;100.00;100271.38;4974790;28;20065;-76
2023/12/24 03:56:02;;;;;;;;;;;10.10;99.90;;;8.97;100.00;100277.41;4960683;28;20042;-77
2023/12/24 03:58:33;;;;;;;2.13;1.35;;;10.20;99.90;;;8.93;100.00;100268.72;4963112;28;19925;-76
2023/12/24 04:01:00;;;;;;;;;;;10.10;99.90;;;9.04;100.00;100287.75;4959757;28;20465;-76
2023/12/24 04:03:27;;;;;;;2.10;1.40;;;10.10;99.90;;;8.98;100.00;100256.41;4963037;28;19935;-77
2023/12/24 04:05:54;;;;;;;4.43;1.77;;;10.10;99.90;;;8.96;100.00;100236.31;4988944;28;20475;-76
2023/12/24 04:08:21;;;;;;;1.67;1.58;;;10.10;99.90;;;9.03;100.00;100240.53;4969388;28;20042;-76
2023/12/24 04:10:48;;;;;;;2.47;1.70;;;10.10;99.90;;;8.99;100.00;100255.50;4960357;28;20471;-76
2023/12/24 04:13:15;;;;;;;1.98;1.77;;;10.60;99.90;;;9.07;100.00;100265.84;4971260;28;20486;-76
2023/12/24 04:15:43;;;;;;;1.85;1.70;;;10.20;99.90;;;9.03;100.00;100248.41;4996942;28;20049;-77
2023/12/24 04:18:11;;;;;;;2.45;1.52;;;11.10;99.90;;;8.98;100.00;100227.53;4987869;28;20050;-76
2023/12/24 04:20:38;;;;;;;1.67;1.40;;;10.20;99.90;;;9.04;100.00;100230.00;4976116;28;20072;-77
2023/12/24 04:23:05;;;;;;;2.42;1.77;;;10.20;99.90;;;8.99;100.00;100252.00;4960997;28;20133;-77
2023/12/24 04:25:33;;;;;;;2.50;1.63;;;10.20;99.90;;;9.20;100.00;100271.72;4965696;28;20139;-77
2023/12/24 04:28:00;;;;;;;6.07;2.22;;;10.20;99.90;;;8.93;100.00;100222.34;4972291;28;20049;-77
2023/12/24 04:30:27;;;;;;;1.67;1.52;;;10.20;99.90;;;9.05;100.00;100242.25;4961816;28;20692;-77
2023/12/24 04:32:55;;;;;;;2.13;1.70;;;10.20;99.90;;;9.07;100.00;100240.44;4976736;28;20053;-77
2023/12/24 04:35:23;;;;;;;1.55;1.45;;;11.20;99.90;;;9.12;100.00;100229.88;4948735;28;20115;-76
2023/12/24 04:37:50;;;;;;;2.38;1.30;;;10.20;99.90;;;9.20;100.00;100233.19;4973255;28;20046;-77
2023/12/24 04:40:17;;;;;;;1.40;1.30;;;10.30;99.90;;;9.15;100.00;100223.69;4958312;28;20053;-77
2023/12/24 04:42:44;;;;;;;1.60;1.50;;;10.30;99.90;;;9.14;100.00;100230.69;4974069;28;20061;-77
2023/12/24 04:45:11;;;;;;;1.63;1.50;;;10.20;99.90;;;9.13;100.00;100291.97;4948079;28;20070;-77
2023/12/24 04:47:41;;;;;;;1.67;1.38;;;10.20;99.90;;;8.98;100.00;100219.66;4957286;28;20073;-77
2023/12/24 04:50:08;;;;;;;;;;;10.20;99.90;;;9.14;100.00;100227.22;4957499;28;20046;-77
2023/12/24 04:52:37;;;;;;;2.95;1.55;;;10.20;99.90;;;8.98;100.00;100198.66;4972202;28;19937;-77
2023/12/24 04:55:06;;;;;;;4.60;1.67;;;10.20;99.90;;;9.03;100.00;100212.53;4964585;28;20058;-77
2023/12/24 04:57:34;;;;;;;1.67;1.52;;;10.20;99.90;;;9.09;100.00;100235.19;4962109;28;20150;-77
2023/12/24 05:00:01;;;;;;;1.30;1.20;;;10.50;99.90;;;8.95;100.00;100209.19;4970079;28;20517;-77
2023/12/24 05:02:28;;;;;;;1.80;1.50;;;10.20;99.90;;;8.80;100.00;100186.75;4964841;28;20050;-76
2023/12/24 05:04:55;;;;;;;1.45;1.33;;;10.20;1.00;;;9.15;100.00;100226.31;4953590;28;20852;-77
2023/12/24 05:07:22;;;;;;;1.50;1.30;;;10.20;1.00;;;8.94;100.00;100197.84;5001927;28;20073;-76
2023/12/24 05:09:51;;;;;;;3.53;1.33;;;10.20;1.00;;;8.80;100.00;100178.88;4969169;28;20169;-77
2023/12/24 05:12:18;;;;;;;1.42;1.20;;;10.20;1.00;;;9.03;100.00;100222.16;4970343;28;20512;-77
2023/12/24 05:14:45;;;;;;;1.52;1.40;;;10.10;1.00;;;9.13;100.00;100214.97;4961746;28;20050;-77
2023/12/24 05:17:12;;;;;;;1.65;1.55;;;10.20;1.00;;;8.96;100.00;100186.44;4963352;28;20058;-77
2023/12/24 05:19:39;;;;;;;1.38;1.30;;;10.20;1.00;;;9.00;100.00;100199.50;4992766;28;20055;-77
2023/12/24 05:22:06;;;;;;;1.75;1.23;;;10.50;1.00;;;9.04;100.00;100205.50;4977762;28;20124;-76
2023/12/24 05:24:33;;;;;;;1.75;1.25;;;10.40;1.00;;;8.97;100.00;100196.91;4986124;28;20050;-76
2023/12/24 05:27:00;;;;;;;1.25;1.10;;;10.10;1.00;;;9.11;100.00;100190.50;4989161;28;20043;-77
2023/12/24 05:29:30;;;;;;;2.40;1.30;;;10.20;1.00;;;9.08;100.00;100213.31;4964759;28;20049;-77
2023/12/24 05:31:58;;;;;;;1.40;1.30;;;10.20;1.00;;;9.11;100.00;100178.25;4981917;28;20488;-77
2023/12/24 05:34:25;;;;;;;4.05;1.20;;;10.20;1.00;;;9.11;100.00;100169.50;4985319;28;20041;-77
2023/12/24 05:36:52;;;;;;;1.25;1.15;;;10.20;1.00;;;9.05;100.00;100186.25;4977636;28;20052;-76
2023/12/24 05:39:19;;;;;;;1.30;1.20;;;10.20;1.00;;;9.19;100.00;100186.81;4976255;28;20120;-77
2023/12/24 05:41:47;;;;;;;1.13;1.00;;;10.20;1.00;;;9.12;100.00;100180.00;4983987;28;20062;-77
2023/12/24 05:44:17;;;;;;;2.03;1.45;;;10.20;1.00;;;9.17;100.00;100193.03;4999290;28;20050;-77
2023/12/24 05:46:44;;;;;;;1.65;1.20;;;10.20;1.00;;;9.14;100.00;100198.34;4977193;28;20053;-77
2023/12/24 05:49:11;;;;;;;1.90;1.20;;;10.30;1.00;;;9.16;100.00;100184.28;4976942;28;20149;-77
2023/12/24 05:51:38;;;;;;;1.63;1.20;;;10.20;1.00;;;9.16;100.00;100201.78;4993890;28;20057;-77
2023/12/24 05:54:05;;;;;;;1.25;1.08;;;10.20;1.00;;;9.16;100.00;100172.94;5009654;28;20038;-77
2023/12/24 05:56:32;;;;;;;1.58;1.20;;;10.30;1.00;;;9.15;100.00;100169.41;4996727;28;20602;-77
2023/12/24 05:58:59;;;;;;;2.45;1.33;;;10.30;1.00;;;9.08;100.00;100157.34;4987730;28;20064;-76
2023/12/24 06:01:26;;;;;;;1.30;1.20;;;10.70;1.00;;;9.11;100.00;100177.38;4993067;28;20074;-77
2023/12/24 06:03:53;;;;;;;1.25;1.10;;;10.30;1.00;;;8.97;100.00;100147.03;4982829;28;20050;-77
2023/12/24 06:06:20;;;;;;;1.23;1.08;;;10.30;1.00;;;9.17;100.00;100186.00;4985425;28;20050;-77
2023/12/24 06:08:47;;;;;;;1.50;1.20;;;10.30;1.00;;;9.22;100.00;100180.66;4969206;28;20041;-77
2023/12/24 06:11:18;;;;;;;1.27;1.17;;;10.30;1.00;;;9.18;100.00;100189.50;4985675;28;20564;-76
2023/12/24 06:13:45;;;;;;;1.52;1.23;;;10.40;1.00;;;9.22;100.00;100197.28;4968163;28;20163;-78
2023/12/24 06:16:13;;;;;;;1.00;1.00;;;10.60;1.00;;;9.13;100.00;100186.97;4993466;28;20053;-78
2023/12/24 06:18:40;;;;;;;1.10;1.10;;;10.30;1.00;;;9.22;100.00;100199.91;4968004;28;20060;-78
2023/12/24 06:21:09;;;;;;;1.45;1.35;;;10.40;1.00;;;9.22;100.00;100181.53;4992873;28;20072;-77
2023/12/24 06:23:36;;;;;;;1.33;1.23;;;9.60;99.90;;;8.82;100.00;100118.50;4974637;28;20486;-78
2023/12/24 06:26:04;;;;;;;1.67;1.30;;;10.40;99.90;;;9.31;100.00;100183.09;4982954;28;20061;-77
2023/12/24 06:28:32;;;;;;;1.30;1.20;;;10.40;99.90;;;9.11;100.00;100161.63;4966397;28;20053;-77
2023/12/24 06:30:59;;;;;;;1.33;1.10;;;10.40;99.90;;;9.04;100.00;100146.03;4991119;28;20097;-77
2023/12/24 06:33:27;;;;;;;1.90;1.27;;;10.50;99.90;;;9.08;100.00;100158.19;4987026;28;20125;-77
2023/12/24 06:35:54;;;;;;;1.17;1.08;;;10.40;99.90;;;9.35;100.00;100157.63;4990202;28;20039;-78
2023/12/24 06:38:21;;;;;;;5.45;1.48;;;10.40;99.90;;;9.38;100.00;100154.94;4974188;28;20139;-77
2023/12/24 06:40:48;;;;;;;1.25;1.15;;;10.50;99.90;;;9.40;100.00;100147.88;4974246;28;20516;-77
2023/12/24 06:43:15;;;;;;;4.07;1.00;;;10.50;99.90;;;9.15;100.00;100105.56;4982919;28;20038;-77
2023/12/24 06:45:43;;;;;;;1.85;1.30;;;10.50;99.90;;;9.32;100.00;100123.56;4973029;28;20037;-77
2023/12/24 06:48:10;;;;;;;1.20;1.10;;;10.50;99.90;;;9.39;100.00;100146.16;4982436;28;20130;-77
2023/12/24 06:50:37;;;;;;;1.17;1.08;;;10.50;99.90;;;9.36;100.00;100117.31;4969401;28;20040;-77
2023/12/24 06:53:05;;;;;;;1.20;1.10;;;10.50;99.90;;;9.25;100.00;100095.72;4970862;28;20109;-77
2023/12/24 06:55:32;;;;;;;1.20;1.20;;;10.40;99.90;;;9.31;100.00;100106.06;4970668;28;20153;-77
2023/12/24 06:58:02;;;;;;;1.15;1.05;;;10.40;1.00;;;9.22;100.00;100123.78;4971125;28;20066;-77
2023/12/24 07:00:30;;;;;;;1.10;1.10;;;10.30;1.00;;;9.05;100.00;100090.03;4983433;28;20120;-77
2023/12/24 07:02:57;;;;;;;2.38;1.92;;;10.30;1.00;;;9.01;100.00;100082.25;4970878;28;20034;-77
2023/12/24 07:05:24;;;;;;;1.23;1.13;;;10.30;1.00;;;9.17;100.00;100136.13;4971441;28;20046;-77
2023/12/24 07:07:51;;;;;;;3.22;1.48;;;10.30;1.00;;;9.10;100.00;100115.28;4987039;28;20111;-77
2023/12/24 07:10:19;;;;;;;4.47;3.65;;;10.30;1.00;;;9.06;100.00;100078.63;4965069;28;20050;-76
2023/12/24 07:12:46;;;;;;;2.13;1.00;;;10.20;1.00;;;9.22;100.00;100094.03;4991354;28;20050;-77
2023/12/24 07:15:13;;;;;;;2.58;1.50;;;10.30;1.00;;;9.22;100.00;100110.66;4995928;28;20045;-77
2023/12/24 07:17:40;;;;;;;1.98;1.77;;;10.30;1.00;;;9.13;100.00;100086.34;4977391;28;20038;-77
2023/12/24 07:20:08;;;;;;;1.00;1.00;;;10.20;1.00;;;9.18;100.00;100102.88;4992779;28;20046;-77
2023/12/24 07:22:35;;;;;;;1.10;1.00;;;10.20;1.00;;;9.10;100.00;100095.19;4983733;28;20640;-77
2023/12/24 07:25:06;;;;;;;1.20;1.10;;;10.20;1.00;;;9.04;100.00;100087.41;4994378;28;20046;-77
2023/12/24 07:27:33;;;;;;;1.10;1.00;;;10.20;1.00;;;8.78;100.00;100052.97;4958410;28;20116;-77
2023/12/24 07:30:00;;;;;;;2.75;1.40;;;10.20;1.00;;;8.90;100.00;100072.00;4986808;28;20041;-77
2023/12/24 07:32:27;;;;;;;1.13;1.10;;;10.60;1.00;;;9.04;100.00;100104.03;4973840;28;20052;-78
2023/12/24 07:34:58;;;;;;;1.80;1.70;;;10.30;1.00;;;8.95;100.00;100104.22;5002041;28;20046;-78
2023/12/24 07:37:25;;;;;;;1.00;1.00;;;10.20;1.00;;;8.91;100.00;100113.06;4961856;28;20048;-77
2023/12/24 07:39:52;;;;;;;1.20;1.10;;;10.20;1.00;;;9.06;100.00;100111.91;4949852;28;20138;-77
2023/12/24 07:42:19;;;;;;;1.58;1.48;;;10.20;1.00;;;9.04;100.00;100113.66;4978589;28;20050;-78
2023/12/24 07:44:47;;;;;;;1.42;1.33;;;10.20;1.00;;;9.01;100.00;100092.75;4976242;28;20433;-77
2023/12/24 07:47:14;;;;;;;1.63;1.10;;;10.50;1.00;;;8.92;100.00;100085.94;4969219;28;20060;-77
2023/12/24 07:49:41;;;;;;;1.00;1.00;;;10.20;1.00;;;8.93;100.00;100090.28;4953852;28;20049;-78
2023/12/24 07:52:08;;;;;;;2.10;1.10;;;10.10;1.00;;;8.95;100.00;100085.84;4977623;28;20050;-78
2023/12/24 07:54:35;;;;;;;2.92;1.60;;;10.10;1.00;;;8.87;100.00;100074.69;4984611;28;20583;-78
2023/12/24 07:57:04;;;;;;;1.25;0.95;;;10.10;1.00;;;8.79;100.00;100075.69;4973408;28;20111;-79
2023/12/24 07:59:31;;;;;;;1.40;1.30;;;10.20;1.00;;;8.99;100.00;100110.28;4969932;28;20065;-78
2023/12/24 08:01:58;;;;;;;1.13;1.10;;;11.20;1.00;;;8.84;100.00;100057.25;4963846;28;20377;-79
2023/12/24 08:04:25;;;;;;;1.10;1.00;;;10.40;1.00;;;8.65;100.00;100034.03;4969174;28;20103;-77
2023/12/24 08:06:52;;;;;;;6.43;1.50;;;10.60;1.00;;;8.88;100.00;100082.50;4958973;28;20070;-81
2023/12/24 08:09:22;;;;;;;2.33;1.10;;;10.20;1.00;;;9.03;100.00;100110.19;4975661;28;20046;-77
2023/12/24 08:11:49;;;;;;;2.78;1.17;;;10.20;1.00;;;8.92;100.00;100101.69;4978411;28;20869;-78
2023/12/24 08:14:17;;;;;;;1.67;1.20;;;10.10;1.00;;;8.97;100.00;100133.06;4973331;28;20050;-77
2023/12/24 08:16:44;;;;;;;2.83;1.20;;;10.20;1.00;;;9.00;100.00;100128.63;4959814;28;20148;-78
2023/12/24 08:19:11;;;;;;;2.95;1.38;;;10.10;1.00;;;8.85;100.00;100147.31;4969665;28;20100;-78
2023/12/24 08:21:38;;;;;;;1.92;1.50;;;10.10;1.00;;;8.88;100.00;100134.13;4960763;28;20100;-78
2023/12/24 08:24:05;;;;;;;3.17;1.42;;;10.10;1.00;;;8.82;100.00;100113.25;4976836;28;20764;-78
2023/12/24 08:26:36;;;;;;;1.20;1.10;;;10.10;1.00;;;8.98;100.00;100150.53;4972248;28;20046;-78
2023/12/24 08:29:03;;;;;;;2.25;1.10;;;10.10;1.00;;;8.85;100.00;100156.03;4959163;28;20050;-78
2023/12/24 08:31:30;;;;;;;1.45;1.10;;;10.50;1.00;;;8.84;100.00;100135.09;4983146;28;20041;-78
2023/12/24 08:33:57;;;;;;;1.48;1.38;;;10.00;4.30;;;8.70;100.00;100135.34;4993047;28;20044;-78
2023/12/24 08:36:24;;;;;;;1.55;1.45;;;10.10;20.80;;;8.47;100.00;100119.16;4959575;28;20042;-78
2023/12/24 08:38:51;;;;;;;2.25;1.60;;;9.90;27.70;;;8.14;100.00;100083.97;4986718;28;20057;-78
2023/12/24 08:41:21;;;;;;;3.65;1.70;;;10.50;29.60;;;8.42;100.00;100165.56;4967627;28;20412;-78
2023/12/24 08:43:48;;;;;;;2.10;1.30;;;9.70;42.20;;;8.25;100.00;100134.41;4975800;28;20467;-78
2023/12/24 08:46:15;;;;;;;1.70;1.60;;;9.70;57.60;;;8.19;100.00;100132.75;4992455;28;20062;-78
2023/12/24 08:48:42;;;;;;;2.38;1.88;;;9.60;60.90;;;8.19;100.00;100150.25;4993524;28;20049;-78
2023/12/24 08:51:09;;;;;;;4.15;1.70;;;9.60;68.50;;;8.17;100.00;100147.66;4990255;28;20453;-78
2023/12/24 08:53:36;;;;;;;1.60;1.50;;;9.40;74.90;;;8.01;100.00;100109.50;4953999;28;20050;-78
2023/12/24 08:56:03;;;;;;;2.13;1.60;;;9.40;77.00;;;7.99;100.00;100138.38;4979531;28;20520;-77
2023/12/24 08:58:33;;;;;;;;;;;9.40;79.50;;;7.94;100.00;100120.13;4983621;28;20041;-78
2023/12/24 09:01:00;;;;;;;1.98;1.60;;;9.80;80.30;;;8.08;100.00;100159.16;4982130;28;20470;-78
2023/12/24 09:03:27;;;;;;;1.83;1.30;;;9.30;80.10;;;8.04;100.00;100160.13;4989717;28;20156;-78
2023/12/24 09:05:55;;;;;;;2.40;1.85;;;9.30;86.10;;;7.91;100.00;100135.00;4961762;28;20048;-78
2023/12/24 09:08:22;;;;;;;1.88;1.40;;;9.20;87.40;;;8.01;100.00;100152.31;4980428;28;20089;-78
2023/12/24 09:10:50;;;;;;;1.55;1.30;;;9.20;88.50;;;7.97;100.00;100152.38;4994930;28;20412;-77
2023/12/24 09:13:17;;;;;;;1.75;1.33;;;9.20;88.70;;;7.90;100.00;100147.25;4962242;28;20046;-77
2023/12/24 09:15:48;;;;;;;16.15;14.45;;;9.20;87.80;;;7.97;100.00;100166.38;4996733;28;20604;-80
2023/12/24 09:18:17;;;;;;;3.30;1.80;;;9.70;86.40;;;8.01;100.00;100147.06;4984934;28;20369;-87
2023/12/24 09:20:44;;;;;;;3.10;1.42;;;9.50;83.20;;;7.92;100.00;100137.63;4977359;28;20101;-78
2023/12/24 09:23:11;;;;;;;1.73;1.63;;;10.10;81.00;;;7.84;100.00;100131.63;4978402;28;20042;-78
2023/12/24 09:25:38;;;;;;;1.55;1.40;;;9.30;86.20;;;7.85;100.00;100129.88;4978276;28;20509;-79
2023/12/24 09:28:06;;;;;;;2.33;1.95;;;9.30;87.00;;;8.01;100.00;100151.44;4985962;28;20038;-81
2023/12/24 09:30:33;;;;;;;1.10;1.00;;;10.00;87.80;;;7.99;100.00;100138.38;4979314;28;20110;-80
2023/12/24 09:33:00;;;;;;;3.63;1.83;;;9.20;86.00;;;7.94;100.00;100138.44;4980586;28;20050;-82
2023/12/24 09:35:27;;;;;;;3.75;2.30;;;9.70;87.80;;;8.06;100.00;100152.25;4972361;28;20770;-81
2023/12/24 09:37:54;;;;;;;3.50;2.70;;;9.40;82.50;;;8.09;100.00;100146.94;4980385;28;20046;-83
2023/12/24 09:40:22;;;;;;;2.33;2.00;;;9.50;81.40;;;7.53;100.00;100050.94;4980929;28;20127;-79
2023/12/24 09:42:50;;;;;;;3.63;2.28;;;9.90;84.80;;;7.70;100.00;100107.41;4988882;28;20092;-80
2023/12/24 09:45:17;;;;;;;2.25;1.90;;;9.40;79.00;;;8.12;100.00;100161.72;4978897;28;20042;-81
2023/12/24 09:47:44;;;;;;;4.85;3.92;;;9.60;81.90;;;8.15;100.00;100162.53;4991370;28;20054;-79
2023/12/24 09:50:12;;;;;;;4.95;3.28;;;9.80;74.60;;;8.14;100.00;100173.91;4976858;28;20056;-81
2023/12/24 09:52:39;;;;;;;3.50;2.35;;;9.50;78.10;;;8.18;100.00;100170.34;4979092;28;20045;-81
2023/12/24 09:55:07;;;;;;;6.07;3.08;;;9.40;76.50;;;8.25;100.00;100175.50;4991183;28;20089;-82
2023/12/24 09:57:34;;;;;;;1.50;1.40;;;9.40;74.20;;;8.12;100.00;100148.63;4987158;28;20125;-82
2023/12/24 10:00:08;;;;;;;4.25;2.85;;;9.40;79.60;;;8.11;100.00;100154.75;4961473;28;20149;-83
2023/12/24 10:02:36;;;;;;;1.60;1.50;;;9.60;77.60;;;7.70;100.00;100091.69;4979476;28;20046;-80
2023/12/24 10:05:04;;;;;;;3.17;2.22;;;10.40;76.70;;;8.26;100.00;100175.47;4977801;28;20081;-82
2023/12/24 10:07:38;;;;;;;;;;;9.50;73.90;;;7.62;100.00;100058.66;4965265;28;20060;-82
2023/12/24 10:10:08;;;;;;;2.30;1.88;;;9.50;68.70;;;8.08;100.00;100139.97;4963748;28;19951;-81
2023/12/24 10:12:38;;;;;;;1.67;1.50;;;9.50;78.50;;;7.82;100.00;100099.34;4978832;28;20042;-79
2023/12/24 10:15:06;;;;;;;1.90;1.33;;;9.50;75.40;;;7.84;100.00;100096.72;4974921;28;20092;-80
2023/12/24 10:17:35;;;;;;;2.15;1.83;;;9.60;77.50;;;7.88;100.00;100093.16;4972795;28;20093;-78
2023/12/24 10:20:06;;;;;;;1.30;1.20;;;11.00;78.50;;;8.36;100.00;100181.44;4973448;28;20042;-79